Terminal Aerodrome Forecast
Issued by NWS

Home | Current Version | Previous Version | Text Only | Print | Product List | Glossary On
Versions: 1 2 3 4 5 6 7 8 9 10 11 12 13 14 15 16 17 18 19 20 21 22 23 24 25 26 27
000
FTUS44 KMOB 021134
TAFBFM
TAF
KBFM 021134Z 0212/0312 00000KT P6SM VCSH FEW060 BKN200
     FM021400 23008KT P6SM VCTS SCT035CB SCT150
     FM030000 19005KT P6SM SCT040 SCT100=

USA.gov is the U.S. government's official web portal to all federal, state and local government web resources and services.